Wrightsville, Arkansas
Current Conditions -  °F | °C
As of 5:53 AM on Thursday 27 Nov 2014 (Local Time) from KLIT Reporting Station
Clear Clear  
Wind Chill: 30°   Ceiling: Unl
Heat Index: 36°   Visibility: 10mi
Dew Point: 24°   Wind: 8mph
Humidity: 62%   Direction: 320°NW
Pressure: 30.46"   Gusts: NA
Location:  34.6°N, 92.22°W
Report Text: KLIT 271153Z 32007KT 10SM CLR 02/M04 A3046 RMK AO2 SLP318 T00221044 10078 20022 53029
Loading
Personal Weather Stations






























Interactive Weather Map New forecast layout! Learn more

10-Day Weather Forecast

Advertisements
Track Severe Weather on mobile